Kernersville, NC

10:10 PM EST on November 23, 2014 (GMT -0500)
Smith Reynolds | Change Station
CLOSE
Current Station
Airport
Location: Winston-Salem,
Elevation: 968 ft
Nearby Weather Stations

Elev 968 ft 36.13 °N, 80.22 °W | Updated 16 minutes ago

Rain
Rain
60 °F
Feels Like 60 °F
N
9
Wind Variable Wind from SSE
Gusts 20 mph

Today
High -- | Low -- °F
--% Chance of Precip.
Yesterday
High -- | Low -- °F
Precip. -- in
7:05 AM 5:08 PM
Waxing Crescent, 3% visible
Pressure 29.76 in
Visibility 6.0 miles
Clouds Mostly Cloudy 500 ft
Mostly Cloudy 1000 ft
Overcast 2800 ft
Dew Point 58 °F
Humidity 93%
Rainfall 0.86 in
Snow Depth Not available.
UV 0 out of 12
Pollen .30 out of 12
Air Quality Not available.
Flu Activity Not available.
METAR KINT 240254Z AUTO 15008G17KT 6SM -RA BR BKN005 BKN010 OVC028 16/14 A2977 RMK AO2 SLP076 P0030 60067 T01560144 58004

More Conditions Fewer Conditions

Pressure 29.76 in
Visibility 6.0 miles
Clouds Mostly Cloudy 500 ft
Mostly Cloudy 1000 ft
Overcast 2800 ft
Dew Point 58 °F
Humidity 93%
Rainfall 0.86 in
Snow Depth Not available.
UV 0 out of 12
Pollen .30 out of 12
Air Quality Not available.
Flu Activity Not available.
METAR KINT 240254Z AUTO 15008G17KT 6SM -RA BR BKN005 BKN010 OVC028 16/14 A2977 RMK AO2 SLP076 P0030 60067 T01560144 58004

More Conditions Fewer Conditions

10-Day Weather Forecast

Almanac

Astronomy

Nov. 23, 2014 Rise Set
Actual Time
Civil Twilight
Nautical Twilight
Astronomical Twilight
Moon
Length of Visible Light
Length of Day
Tomorrow will be .
, % of the Moon is Illuminated

Today's Extremes

State Highs State Lows

Community

WunderPhotos

Upload Photos

1,773,257 photos uploaded!

WunderBlogs® & News

Nearby

Air Quality

  Air Quality AQ Index Pollutant
Not available.

Snow Depth

Station Depth Elevation

Earthquake Activity

City Distance Mag. Time & Date
Minimum magnitude displayed is 2.5.

Coastal Water Temperatures

Place Temperature

Nearby Weather Stations